Columbia Metropolitan Airport
KCAE : now visible

Airfield :











YOU CAN JOIN US ON...

 
LOGIN :

Register | Disclaimer

   EN    FR    IT 

 









Legend :    VFR   Marginal VFR   IFR   Intensive IFR   Very Intensive IFR
Visi :
Ceiling :
>= 8 km
>= 3000ft
5 to 8 km
1000 to 3000 ft
1500m to 5 km
500 to 1000 ft
800 to 1500m
200 to 500 ft
< 800m
< 200 ft
Symbols :   Thunderstorms  Fog  Heavy snow  Heavy precipitations  Wind > 20 kt






- Airport Elevation : 236 ft
- IATA code : CAE


KCAE - Columbia Metropolitan

CURRENT METAR :
  • 121628Z 04012G23KT 5SM -RA BR SCT007 BKN011 OVC017 12/10 A3020 RMK AO2 P0006 T01170100

EXPIRED METARs :
  • 121610Z 03011G17KT 4SM RA BR BKN007 OVC013 13/11 A3019 RMK AO2 CIG 005V010 P0004 T01280111
  • 121556Z 04009G16KT 4SM RA BR OVC012 13/11 A3020 RMK AO2 SLP223 P0010 T01280111
  • 121504Z 03007KT 7SM -RA OVC010 14/12 A3016 RMK AO2 CIG 006V015 P0000 T01390122
  • 121456Z 04007KT 5SM -RA BR BKN008 BKN012 OVC016 14/12 A3015 RMK AO2 CIG 006V010 SLP209 P0022 60049 T01390122 53023
  • 121440Z 04010G18KT 3SM RA BR BKN010 OVC018 14/12 A3014 RMK AO2 CIG 006V012 P0020 T01390122
  • 121431Z 04009KT 2SM RA BR BKN008 OVC016 14/13 A3013 RMK AO2 CIG 006V011 P0019 T01390128
  • 121356Z 06012G20KT 3SM +RA BR FEW007 BKN010 OVC017 16/14 A3013 RMK AO2 SLP199 P0020 T01610144
  • 121342Z 08011KT 4SM +RA BR BKN007 BKN014 OVC020 16/14 A3012 RMK AO2 P0015 T01610144

TAF KCAE
Valid from the 12 at 16:00 until the 13 at 12:00 UTC


121604Z 1216/1312 03010G18KT 4SM -RA BR OVC007
FM122200 04006KT P6SM OVC020
FM130300 05004KT P6SM OVC040
KZJX FIR / North America



MET'MAP, your aeronautical weather chart ! - Copyright ORBIFLY December 2007 - Disclaimer

ORBIFLY MET'MAP TEAM :

Programming & Development : Alexandra Zaïnal
Concept & original design : Baudouin d'Aumeries
Assistance for programming : Marc-Olivier Méhu
Technical & hardware support : Manuel Goepfert

Contact : metmap@orbifly.com




SOURCES & CREDITS :

   NOAA       Earth
Advisory